Aviation Digital Data Service (ADDS)

Output produced by METARs form (1755 UTC 15 December 2017)
found at http://www.aviationweather.gov/adds/metars/
 
KVKS 151735Z AUTO 34007KT 10SM CLR 08/M03 A3030 RMK A01
KVKS 151715Z AUTO 00000KT 10SM CLR 07/M02 A3031 RMK A01
KVKS 151655Z AUTO 02007KT 10SM CLR 07/M03 A3032 RMK A01
KVKS 151635Z AUTO 36005KT 10SM CLR 07/M02 A3032 RMK A01
KVKS 151615Z AUTO 36007KT 10SM CLR 06/M02 A3032 RMK A01
KVKS 151555Z AUTO 36008KT 10SM CLR 06/M02 A3031 RMK A01
KVKS 151535Z AUTO 01007KT 10SM CLR 06/M01 A3031 RMK A01
KVKS 151515Z AUTO 36006KT 10SM CLR 05/M01 A3030 RMK A01
KVKS 151455Z AUTO 03004KT 10SM CLR 05/M02 A3027 RMK A01
KVKS 151435Z AUTO 02005KT 10SM CLR 05/M01 A3025 RMK A01
KVKS 151415Z AUTO 00000KT 10SM CLR 04/M01 A3025 RMK A01
KVKS 151355Z AUTO 36007KT 10SM CLR 04/M01 A3025 RMK A01
KVKS 151335Z AUTO 01008KT 10SM CLR 04/M01 A3023 RMK A01
KVKS 151315Z AUTO 36006KT 10SM CLR 03/M01 A3022 RMK A01
KVKS 151255Z AUTO 36007KT 10SM CLR 04/M01 A3022 RMK A01
KVKS 151235Z AUTO 36007KT 10SM CLR 04/M01 A3021 RMK A01
KVKS 151215Z AUTO 36005KT 10SM CLR 04/M01 A3021 RMK A01
KVKS 151155Z AUTO 35006KT 10SM CLR 04/M01 A3021 RMK A01
KVKS 151135Z AUTO 36007KT 10SM CLR 03/M01 A3019 RMK A01
KVKS 151115Z AUTO 36006KT 10SM CLR 04/M01 A3019 RMK A01
KVKS 151055Z AUTO 34004KT 10SM CLR 03/M01 A3019 RMK A01
KVKS 151035Z AUTO 36007KT 10SM FEW047 03/M01 A3017 RMK A01
KVKS 151015Z AUTO 01005KT 10SM FEW039 SCT050 04/M01 A3017 RMK A01
KVKS 150955Z AUTO 36006KT 10SM SCT039 SCT065 04/M01 A3017 RMK A01
KVKS 150935Z AUTO 01006KT 10SM FEW039 SCT065 05/M01 A3016 RMK A01
KVKS 150915Z AUTO 01006KT 10SM CLR 05/M01 A3016 RMK A01
KVKS 150855Z AUTO 01007KT 10SM CLR 05/M00 A3016 RMK A01
KVKS 150835Z AUTO 01006KT 10SM SCT080 05/M00 A3015 RMK A01
KVKS 150815Z AUTO 02005KT 10SM SCT080 06/M00 A3015 RMK A01
KVKS 150755Z AUTO 01006KT 10SM BKN080 06/00 A3015 RMK A01
KVKS 150735Z AUTO 01006G11KT 10SM BKN080 06/00 A3014 RMK A01
KVKS 150715Z AUTO 36008KT 10SM CLR 06/00 A3014 RMK A01
KVKS 150655Z AUTO 36008KT 10SM CLR 06/01 A3012 RMK A01
KVKS 150635Z AUTO 01005KT 10SM CLR 06/01 A3012 RMK A01
KVKS 150615Z AUTO 01005KT 10SM CLR 06/01 A3012 RMK A01
KVKS 150555Z AUTO 00000KT 10SM CLR 06/01 A3012 RMK A01
KVKS 150535Z AUTO 00000KT 10SM CLR 06/01 A3011 RMK A01
KVKS 150515Z AUTO 3.12500003KT 10SM CLR 07/01 A3011 RMK A01
KVKS 150455Z AUTO 02004KT 10SM CLR 08/01 A3011 RMK A01
KVKS 150435Z AUTO 03005G10KT 10SM FEW050 FEW055 08/01 A3011 RMK A01
KVKS 150415Z AUTO 02006KT 10SM FEW055 09/01 A3011 RMK A01
KVKS 150355Z AUTO 03007KT 10SM FEW050 FEW055 08/02 A3010 RMK A01
KVKS 150335Z AUTO 02006KT 10SM FEW050 FEW055 08/02 A3009 RMK A01
KVKS 150315Z AUTO 36004KT 10SM FEW046 FEW050 08/02 A3009 RMK A01
KVKS 150255Z AUTO 36004KT 10SM FEW048 06/03 A3009 RMK A01
KVKS 150235Z AUTO 00000KT 10SM CLR 06/04 A3008 RMK A01
KVKS 150215Z AUTO 35003KT 10SM CLR 06/03 A3007 RMK A01
KVKS 150155Z AUTO 00000KT 10SM CLR 07/04 A3006 RMK A01
KVKS 150135Z AUTO 00000KT 10SM CLR 07/04 A3005 RMK A01
KVKS 150115Z AUTO 00000KT 10SM CLR 08/04 A3005 RMK A01
KVKS 150055Z AUTO 00000KT 10SM CLR 08/04 A3004 RMK A01
KVKS 150035Z AUTO 00000KT 10SM CLR 08/04 A3004 RMK A01
KVKS 150015Z AUTO 00000KT 10SM FEW049 09/04 A3003 RMK A01
KVKS 142355Z AUTO 00000KT 10SM SCT048 09/04 A3003 RMK A01
KVKS 142335Z AUTO 00000KT 10SM CLR 10/03 A3002 RMK A01
KVKS 142315Z AUTO 00000KT 10SM CLR 10/03 A3001 RMK A01
KVKS 142255Z AUTO 00000KT 10SM CLR 12/03 A3000 RMK A01
KVKS 142235Z AUTO 00000KT 10SM CLR 12/03 A3000 RMK A01
KVKS 142215Z AUTO 00000KT 10SM CLR 13/02 A3000 RMK A01
KVKS 142155Z AUTO 00000KT 10SM CLR 13/02 A2999 RMK A01
KVKS 142135Z AUTO 00000KT 10SM CLR 13/02 A2999 RMK A01
KVKS 142115Z AUTO 30004KT 10SM CLR 13/03 A2998 RMK A01
KVKS 142055Z AUTO 00000KT 10SM CLR 13/02 A2999 RMK A01
KVKS 142035Z AUTO 19003KT 10SM CLR 14/02 A2998 RMK A01
KVKS 142015Z AUTO 20004KT 10SM CLR 15/02 A2998 RMK A01
KVKS 141955Z AUTO 00000KT 10SM CLR 14/02 A2999 RMK A01
KVKS 141935Z AUTO 04004KT 10SM CLR 14/02 A2999 RMK A01
KVKS 141915Z AUTO VRB04KT 10SM CLR 13/02 A2998 RMK A01
KVKS 141855Z AUTO 35005KT 10SM CLR 13/02 A2999 RMK A01
KVKS 141835Z AUTO 00000KT 10SM CLR 12/02 A3000 RMK A01
KVKS 141815Z AUTO 00000KT 10SM CLR 12/02 A3001 RMK A01
KVKS 141755Z AUTO 00000KT 10SM CLR 11/02 A3001 RMK A01
KVKS 141735Z AUTO 00000KT 10SM CLR 11/02 A3002 RMK A01
KVKS 141715Z AUTO 00000KT 10SM CLR 11/02 A3002 RMK A01
KVKS 141655Z AUTO 00000KT 10SM CLR 11/02 A3002 RMK A01
KVKS 141635Z AUTO 00000KT 10SM CLR 10/02 A3003 RMK A01
KVKS 141615Z AUTO VRB04KT 10SM CLR 10/03 A3003 RMK A01
KVKS 141555Z AUTO VRB03KT 10SM CLR 10/03 A3003 RMK A01
KVKS 141535Z AUTO 00000KT 10SM CLR 09/04 A3003 RMK A01
KVKS 141515Z AUTO 00000KT 10SM CLR 08/04 A3003 RMK A01
KVKS 141455Z AUTO 00000KT 10SM CLR 07/04 A3002 RMK A01
KVKS 141435Z AUTO 00000KT 10SM CLR 06/05 A3002 RMK A01
KVKS 141415Z AUTO 00000KT 10SM CLR 04/03 A3001 RMK A01
KVKS 141355Z AUTO 00000KT 10SM CLR 04/02 A3001 RMK A01
KVKS 141335Z AUTO 00000KT 10SM CLR 03/01 A2999 RMK A01
KVKS 141315Z AUTO 00000KT 10SM CLR 04/02 A2998 RMK A01
KVKS 141255Z AUTO 00000KT 10SM CLR 03/01 A2998 RMK A01
KVKS 141235Z AUTO 00000KT 10SM CLR 04/02 A2997 RMK A01
KVKS 141215Z AUTO 00000KT 10SM CLR 05/02 A2996 RMK A01
KVKS 141155Z AUTO 00000KT 10SM CLR 06/02 A2996 RMK A01
KVKS 141135Z AUTO 00000KT 10SM CLR 06/03 A2996 RMK A01
KVKS 141115Z AUTO 00000KT 10SM CLR 07/02 A2996 RMK A01
KVKS 141055Z AUTO 00000KT 10SM CLR 07/02 A2995 RMK A01
KVKS 141035Z AUTO 00000KT 10SM FEW055 07/02 A2996 RMK A01
KVKS 141015Z AUTO 00000KT 10SM FEW050 07/02 A2996 RMK A01
KVKS 140955Z AUTO 00000KT 10SM FEW050 07/02 A2996 RMK A01
KVKS 140935Z AUTO 00000KT 10SM FEW050 SCT055 07/02 A2995 RMK A01
KVKS 140915Z AUTO 21004KT 10SM SCT050 07/02 A2996 RMK A01
KVKS 140855Z AUTO 20003KT 10SM SCT049 07/02 A2996 RMK A01
KVKS 140835Z AUTO 00000KT 10SM SCT048 07/02 A2996 RMK A01
KVKS 140815Z AUTO 00000KT 10SM FEW050 07/02 A2996 RMK A01
KVKS 140755Z AUTO 00000KT 10SM FEW049 FEW055 07/02 A2996 RMK A01
KVKS 140735Z AUTO 00000KT 10SM CLR 08/02 A2996 RMK A01
KVKS 140715Z AUTO 00000KT 10SM CLR 08/02 A2996 RMK A01
KVKS 140655Z AUTO 20005KT 10SM CLR 08/01 A2996 RMK A01
KVKS 140635Z AUTO VRB03KT 10SM CLR 08/01 A2996 RMK A01
KVKS 140615Z AUTO 21003KT 10SM CLR 08/01 A2997 RMK A01
KVKS 140555Z AUTO VRB03KT 10SM CLR 08/01 A2997 RMK A01
KVKS 140535Z AUTO 00000KT 10SM CLR 08/01 A2997 RMK A01
KVKS 140515Z AUTO 24004KT 10SM CLR 09/01 A2997 RMK A01
KVKS 140455Z AUTO 24005KT 10SM CLR 09/01 A2998 RMK A01
KVKS 140435Z AUTO 24004KT 10SM CLR 09/00 A2998 RMK A01
KVKS 140415Z AUTO 23004KT 10SM CLR 10/M00 A2998 RMK A01
KVKS 140355Z AUTO VRB06KT 10SM CLR 10/M00 A2997 RMK A01
KVKS 140335Z AUTO VRB04G10KT 10SM CLR 10/M01 A2997 RMK A01
KVKS 140315Z AUTO 23004G10KT 10SM CLR 10/M01 A2996 RMK A01
KVKS 140255Z AUTO 22007KT 10SM CLR 10/M01 A2996 RMK A01
KVKS 140235Z AUTO 22008KT 10SM FEW019 SCT035 10/M01 A2996 RMK A01
KVKS 140215Z AUTO 21008G14KT 10SM BKN019 BKN035 11/M01 A2995 RMK A01
KVKS 140155Z AUTO 21008KT 10SM OVC019 10/M01 A2995 RMK A01
KVKS 140135Z AUTO 21008G15KT 10SM OVC019 11/M02 A2995 RMK A01
KVKS 140115Z AUTO 22007KT 10SM BKN019 BKN034 11/M02 A2996 RMK A01
KVKS 140055Z AUTO 21010KT 10SM CLR 11/M02 A2996 RMK A01
KVKS 140035Z AUTO 22008G15KT 10SM CLR 12/M03 A2996 RMK A01
KVKS 140015Z AUTO 22011KT 10SM CLR 12/M03 A2995 RMK A01
KVKS 132355Z AUTO 21009KT 10SM CLR 12/M03 A2995 RMK A01
KVKS 132335Z AUTO 20009KT 10SM CLR 11/M04 A2995 RMK A01
KVKS 132315Z AUTO 20006G11KT 10SM CLR 12/M04 A2995 RMK A01
KVKS 132255Z AUTO 21010KT 10SM CLR 13/M04 A2995 RMK A01
KVKS 132235Z AUTO 21010KT 10SM CLR 14/M04 A2997 RMK A01
KVKS 132215Z AUTO 21014KT 10SM CLR 15/M04 A2998 RMK A01
KVKS 132155Z AUTO 22015G20KT 10SM CLR 15/M04 A2999 RMK A01
KVKS 132135Z AUTO 21016G21KT 10SM CLR 15/M04 A2999 RMK A01
KVKS 132115Z AUTO 22010G17KT 10SM CLR 16/M04 A3000 RMK A01
KVKS 132055Z AUTO 22015KT 10SM CLR 16/M05 A3000 RMK A01
KVKS 132035Z AUTO 22010G17KT 200V260 10SM CLR 16/M05 A3001 RMK A01
KVKS 132015Z AUTO 22011G19KT 10SM CLR 16/M06 A3001 RMK A01
KVKS 131955Z AUTO 23012G18KT 10SM CLR 16/M06 A3001 RMK A01
KVKS 131935Z AUTO 21013KT 10SM CLR 15/M07 A3001 RMK A01
KVKS 131915Z AUTO 24011G18KT 10SM CLR 15/M07 A3002 RMK A01
KVKS 131855Z AUTO 22014G19KT 10SM CLR 15/M07 A3003 RMK A01
KVKS 131835Z AUTO 21013G20KT 10SM CLR 15/M05 A3004 RMK A01
KVKS 131815Z AUTO 21012G21KT 10SM CLR 14/M05 A3006 RMK A01
KVKS 131755Z AUTO 21013KT 10SM CLR 14/M05 A3008 RMK A01
KVKS 131735Z AUTO 21012G17KT 10SM CLR 13/M05 A3010 RMK A01
KVKS 131715Z AUTO 22009KT 10SM CLR 13/M04 A3011 RMK A01
KVKS 131655Z AUTO 22010KT 10SM CLR 12/M03 A3012 RMK A01
KVKS 131635Z AUTO 22009KT 10SM CLR 11/M03 A3014 RMK A01
KVKS 131615Z AUTO 22010KT 10SM CLR 10/M03 A3014 RMK A01
KVKS 131555Z AUTO 22007KT 10SM CLR 09/M02 A3015 RMK A01
KVKS 131535Z AUTO 22005KT 10SM CLR 08/M02 A3016 RMK A01
KVKS 131515Z AUTO 21007G13KT 10SM CLR 07/M03 A3015 RMK A01
KVKS 131455Z AUTO 20009KT 10SM CLR 06/M02 A3014 RMK A01
KVKS 131435Z AUTO 17005KT 10SM CLR 05/M01 A3014 RMK A01
KVKS 131415Z AUTO 14004KT 8SM CLR 03/M01 A3013 RMK A01
KVKS 131355Z AUTO 00000KT 9SM CLR 00/M02 A3014 RMK A01
KVKS 131335Z AUTO 00000KT 10SM CLR M01/M02 A3014 RMK A01
KVKS 131315Z AUTO 00000KT 10SM CLR M02/M03 A3014 RMK A01
KVKS 131255Z AUTO 00000KT 10SM CLR M02/M03 A3015 RMK A01
KVKS 131235Z AUTO 00000KT 10SM CLR M02/M03 A3014 RMK A01
KVKS 131215Z AUTO 00000KT 10SM CLR M02/M03 A3014 RMK A01
KVKS 131155Z AUTO 00000KT 10SM CLR M02/M03 A3014 RMK A01
KVKS 131135Z AUTO 00000KT 10SM CLR M02/M03 A3014 RMK A01
KVKS 131115Z AUTO 00000KT 10SM CLR M03/M03 A3015 RMK A01
KVKS 131055Z AUTO 00000KT 10SM CLR M02/M03 A3015 RMK A01
KVKS 131035Z AUTO 00000KT 10SM CLR M02/M03 A3014 RMK A01
KVKS 131015Z AUTO 00000KT 10SM CLR M02/M03 A3014 RMK A01
KVKS 130955Z AUTO 00000KT 10SM CLR M02/M03 A3016 RMK A01
KVKS 130935Z AUTO 00000KT 10SM CLR M02/M02 A3016 RMK A01
KVKS 130915Z AUTO 00000KT 10SM CLR M02/M03 A3017 RMK A01
KVKS 130855Z AUTO 00000KT 10SM CLR M02/M03 A3017 RMK A01
KVKS 130835Z AUTO 00000KT 10SM CLR M02/M03 A3018 RMK A01
KVKS 130815Z AUTO 00000KT 10SM CLR M01/M02 A3018 RMK A01
KVKS 130755Z AUTO 00000KT 10SM CLR M01/M02 A3017 RMK A01
KVKS 130735Z AUTO 00000KT 10SM CLR M01/M02 A3017 RMK A01
KVKS 130715Z AUTO 00000KT 10SM FEW022 FEW035 M01/M02 A3017 RMK A01
KVKS 130655Z AUTO 00000KT 10SM SCT021 SCT035 M01/M02 A3017 RMK A01
KVKS 130635Z AUTO 00000KT 10SM CLR M01/M02 A3018 RMK A01
KVKS 130615Z AUTO 00000KT 10SM CLR M01/M02 A3019 RMK A01
KVKS 130555Z AUTO 00000KT 10SM CLR M01/M02 A3019 RMK A01
KVKS 130535Z AUTO 00000KT 10SM CLR M01/M02 A3019 RMK A01
KVKS 130515Z AUTO 00000KT 10SM CLR M01/M02 A3019 RMK A01
KVKS 130455Z AUTO 00000KT 10SM CLR M00/M01 A3020 RMK A01
KVKS 130435Z AUTO 00000KT 10SM CLR M00/M02 A3020 RMK A01
KVKS 130415Z AUTO 00000KT 10SM CLR 00/M01 A3021 RMK A01
KVKS 130355Z AUTO 00000KT 10SM CLR 00/M01 A3021 RMK A01
KVKS 130335Z AUTO 00000KT 10SM CLR 01/M01 A3021 RMK A01
KVKS 130315Z AUTO 00000KT 10SM CLR 01/M02 A3021 RMK A01
KVKS 130255Z AUTO 00000KT 10SM CLR 02/M01 A3021 RMK A01
KVKS 130235Z AUTO 00000KT 10SM CLR 03/M02 A3021 RMK A01
KVKS 130215Z AUTO 00000KT 10SM CLR 02/M01 A3020 RMK A01
KVKS 130155Z AUTO 00000KT 10SM CLR 03/M01 A3020 RMK A01
KVKS 130135Z AUTO 00000KT 10SM CLR 04/M01 A3020 RMK A01
KVKS 130115Z AUTO 00000KT 10SM CLR 05/M02 A3020 RMK A01
KVKS 130055Z AUTO 00000KT 10SM CLR 06/M01 A3020 RMK A01
KVKS 130035Z AUTO 01005KT 10SM CLR 07/M03 A3020 RMK A01
KVKS 130015Z AUTO 01004KT 10SM CLR 07/M01 A3020 RMK A01
KVKS 122355Z AUTO 00000KT 10SM CLR 07/M02 A3019 RMK A01
KVKS 122335Z AUTO 00000KT 10SM CLR 09/M02 A3018 RMK A01
KVKS 122315Z AUTO 35004KT 10SM CLR 09/M03 A3018 RMK A01
KVKS 122255Z AUTO 35004KT 10SM CLR 10/M03 A3018 RMK A01
KVKS 122235Z AUTO 35005KT 10SM CLR 12/M02 A3019 RMK A01
KVKS 122215Z AUTO 35007KT 10SM CLR 13/M02 A3019 RMK A01
KVKS 122155Z AUTO 35009KT 10SM CLR 13/M02 A3019 RMK A01
KVKS 122135Z AUTO 33010KT 10SM CLR 14/M02 A3019 RMK A01
KVKS 122115Z AUTO 34007G13KT 10SM CLR 14/M01 A3019 RMK A01
KVKS 122055Z AUTO 35009G16KT 10SM CLR 14/M02 A3018 RMK A01
KVKS 122035Z AUTO 32011G17KT 10SM CLR 14/M02 A3019 RMK A01
KVKS 122015Z AUTO 31010KT 10SM CLR 14/M01 A3018 RMK A01
KVKS 121955Z AUTO VRB07G13KT 10SM CLR 14/M00 A3018 RMK A01
KVKS 121935Z AUTO 32010KT 10SM CLR 14/M00 A3019 RMK A01
KVKS 121915Z AUTO 32008KT 10SM CLR 14/M01 A3019 RMK A01
KVKS 121855Z AUTO VRB07G16KT 10SM CLR 14/M00 A3020 RMK A01
KVKS 121835Z AUTO 35010KT 10SM CLR 14/M00 A3020 RMK A01
KVKS 121815Z AUTO 34010G16KT 10SM CLR 14/M00 A3022 RMK A01